Time;durP1;ratioP1;P1;durP2;ratioP2;P2;SDS_P1;SDS_P2;PMS_P1;PMS_P2;Temp;Humidity;BMP_temperature;BMP_pressure;BME280_temperature;BME280_humidity;BME280_pressure;Samples;Min_cycle;Max_cycle;Signal;HPM_P1;HPM_P2
2022/09/09 00:02:19;;;;;;;0.00;0.00;;;23.00;72.00;;;;;;4159442;28;20488;-67
2022/09/09 00:05:10;;;;;;;0.00;0.00;;;23.00;72.00;;;;;;4176306;28;20443;-67
2022/09/09 00:07:54;;;;;;;1.50;1.40;;;23.10;72.00;;;;;;4175244;28;20150;-68
2022/09/09 00:10:40;;;;;;;0.10;0.10;;;23.00;71.90;;;;;;4161291;28;20168;-66
2022/09/09 00:13:29;;;;;;;0.00;0.00;;;23.00;71.90;;;;;;4173328;28;20407;-66
2022/09/09 00:16:18;;;;;;;0.10;0.10;;;23.00;72.00;;;;;;4176352;28;20052;-64
2022/09/09 00:19:05;;;;;;;0.68;0.68;;;23.00;72.00;;;;;;4174850;28;20048;-65
2022/09/09 00:21:53;;;;;;;0.00;0.00;;;23.00;72.00;;;;;;4159688;28;20456;-64
2022/09/09 00:24:42;;;;;;;0.10;0.10;;;23.00;72.00;;;;;;4169658;28;20090;-65
2022/09/09 00:27:31;;;;;;;0.00;0.00;;;23.00;72.00;;;;;;4160994;28;20056;-65
2022/09/09 00:30:19;;;;;;;0.00;0.00;;;23.00;72.10;;;;;;4159205;28;20060;-65
2022/09/09 00:33:11;;;;;;;0.00;0.00;;;23.00;72.10;;;;;;4174689;28;20499;-66
2022/09/09 00:35:57;;;;;;;0.10;0.10;;;23.00;72.10;;;;;;4174284;28;21142;-65
2022/09/09 00:38:43;;;;;;;0.00;0.00;;;23.00;72.00;;;;;;4163110;28;20095;-65
2022/09/09 00:41:32;;;;;;;0.00;0.00;;;23.00;72.00;;;;;;4159198;28;20052;-68
2022/09/09 00:44:28;;;;;;;2.28;1.65;;;23.00;72.00;;;;;;4157825;28;20052;-65
2022/09/09 00:47:35;;;;;;;0.00;0.00;;;23.00;72.10;;;;;;4158201;28;20052;-68
2022/09/09 00:50:36;;;;;;;0.00;0.00;;;22.90;72.00;;;;;;4171944;28;20424;-68
2022/09/09 00:53:29;;;;;;;0.00;0.00;;;22.90;72.10;;;;;;4157940;28;20080;-67
2022/09/09 00:56:14;;;;;;;0.00;0.00;;;22.90;72.00;;;;;;4157369;28;20152;-67
2022/09/09 00:59:08;;;;;;;0.00;0.00;;;22.90;72.00;;;;;;4174030;28;20099;-68
2022/09/09 01:01:51;;;;;;;0.00;0.00;;;22.90;72.10;;;;;;4174730;28;20106;-68
2022/09/09 01:04:37;;;;;;;0.00;0.00;;;22.90;72.10;;;;;;4174592;28;20047;-65
2022/09/09 01:07:20;;;;;;;0.00;0.00;;;22.90;72.10;;;;;;4172063;28;20056;-65
2022/09/09 01:10:04;;;;;;;0.00;0.00;;;22.90;72.10;;;;;;4158568;28;20056;-65
2022/09/09 01:12:49;;;;;;;0.00;0.00;;;22.90;72.00;;;;;;4173555;28;20068;-65
2022/09/09 01:15:35;;;;;;;0.00;0.00;;;22.90;72.00;;;;;;4173242;28;20075;-65
2022/09/09 01:18:19;;;;;;;0.03;0.03;;;22.90;72.00;;;;;;4158679;28;20048;-66
2022/09/09 01:21:09;;;;;;;0.00;0.00;;;22.90;72.00;;;;;;4158928;28;20508;-66
2022/09/09 01:24:09;;;;;;;0.00;0.00;;;22.90;72.10;;;;;;4158398;28;20064;-65
2022/09/09 01:27:11;;;;;;;0.05;0.05;;;22.80;72.00;;;;;;4157143;28;20479;-67
2022/09/09 01:29:52;;;;;;;0.60;0.38;;;22.80;72.00;;;;;;4157800;28;20514;-66
2022/09/09 01:32:41;;;;;;;0.70;0.45;;;22.80;72.00;;;;;;4159262;28;20049;-66
2022/09/09 01:35:33;;;;;;;0.20;0.20;;;22.80;72.00;;;;;;4174814;28;20470;-66
2022/09/09 01:38:15;;;;;;;0.00;0.00;;;22.80;72.00;;;;;;4173523;28;20048;-66
2022/09/09 01:40:58;;;;;;;0.25;0.25;;;22.80;72.00;;;;;;4172132;28;20106;-65
2022/09/09 01:43:50;;;;;;;0.30;0.30;;;22.80;72.00;;;;;;4173767;28;20091;-65
2022/09/09 01:46:31;;;;;;;1.15;0.45;;;22.80;72.00;;;;;;4174223;28;20574;-65
2022/09/09 01:49:13;;;;;;;0.35;0.35;;;22.80;71.90;;;;;;4173631;28;20485;-66
2022/09/09 01:51:57;;;;;;;0.00;0.00;;;22.80;71.90;;;;;;4162044;28;20143;-65
2022/09/09 01:54:46;;;;;;;0.00;0.00;;;22.80;71.90;;;;;;4173352;28;20175;-65
2022/09/09 01:57:35;;;;;;;0.00;0.00;;;22.80;71.90;;;;;;4156502;28;20056;-65
2022/09/09 02:00:18;;;;;;;0.00;0.00;;;22.80;71.80;;;;;;4157214;28;20052;-65
2022/09/09 02:03:09;;;;;;;0.00;0.00;;;22.80;71.80;;;;;;4163067;28;20048;-64
2022/09/09 02:06:11;;;;;;;0.00;0.00;;;22.80;71.80;;;;;;4158995;28;20068;-65
2022/09/09 02:08:56;;;;;;;0.00;0.00;;;22.80;71.90;;;;;;4185180;28;20430;-65
2022/09/09 02:11:38;;;;;;;0.00;0.00;;;22.80;71.90;;;;;;4157079;28;20131;-64
2022/09/09 02:14:36;;;;;;;0.00;0.00;;;22.80;71.90;;;;;;4156545;28;20056;-65
2022/09/09 02:17:25;;;;;;;0.20;0.20;;;22.70;71.80;;;;;;4157676;28;20691;-65
2022/09/09 02:20:24;;;;;;;0.08;0.08;;;22.70;71.90;;;;;;4172911;28;20059;-64
2022/09/09 02:23:13;;;;;;;0.55;0.55;;;22.70;71.90;;;;;;4172770;28;20454;-65
2022/09/09 02:25:56;;;;;;;0.30;0.30;;;22.70;71.80;;;;;;4172995;28;22073;-65
2022/09/09 02:28:40;;;;;;;0.00;0.00;;;22.70;71.90;;;;;;4174278;28;20047;-65
2022/09/09 02:31:25;;;;;;;0.00;0.00;;;22.70;71.90;;;;;;4173351;28;20113;-65
2022/09/09 02:34:17;;;;;;;0.00;0.00;;;22.70;71.90;;;;;;4173057;28;20059;-64
2022/09/09 02:37:00;;;;;;;0.10;0.10;;;22.70;71.90;;;;;;4174141;28;20052;-64
2022/09/09 02:39:41;;;;;;;0.00;0.00;;;22.60;71.80;;;;;;4173097;28;20399;-64
2022/09/09 02:42:26;;;;;;;0.00;0.00;;;22.60;71.90;;;;;;4161011;28;20051;-64
2022/09/09 02:45:15;;;;;;;0.00;0.00;;;22.60;71.90;;;;;;4166696;28;20741;-64
2022/09/09 02:48:07;;;;;;;0.10;0.10;;;22.70;71.80;;;;;;4173116;28;20126;-64
2022/09/09 02:50:57;;;;;;;0.00;0.00;;;22.70;71.90;;;;;;4174136;28;20059;-64
2022/09/09 02:53:45;;;;;;;0.00;0.00;;;22.60;71.80;;;;;;4172304;28;20226;-65
2022/09/09 02:56:30;;;;;;;0.00;0.00;;;22.60;71.80;;;;;;4172640;28;20404;-64
2022/09/09 02:59:12;;;;;;;0.00;0.00;;;22.60;71.80;;;;;;4171403;28;20102;-64
2022/09/09 03:01:54;;;;;;;0.00;0.00;;;22.60;71.80;;;;;;4156371;28;20056;-64
2022/09/09 03:04:36;;;;;;;0.10;0.10;;;22.60;71.80;;;;;;4161967;28;20565;-64
2022/09/09 03:07:20;;;;;;;0.00;0.00;;;22.60;71.80;;;;;;4167975;28;20122;-64
2022/09/09 03:10:02;;;;;;;1.02;1.02;;;22.60;71.80;;;;;;4174079;28;20047;-64
2022/09/09 03:12:44;;;;;;;0.15;0.15;;;22.60;71.80;;;;;;4175671;28;20067;-64
2022/09/09 03:15:28;;;;;;;1.50;1.40;;;22.60;71.80;;;;;;4175782;28;20060;-65
2022/09/09 03:18:09;;;;;;;7.88;0.52;;;22.60;71.90;;;;;;4176081;28;20048;-64
2022/09/09 03:20:50;;;;;;;0.08;0.08;;;22.50;71.80;;;;;;4159462;28;20055;-64
2022/09/09 03:23:34;;;;;;;0.30;0.22;;;22.60;72.70;;;;;;4159577;28;20057;-65
2022/09/09 03:26:17;;;;;;;0.15;0.15;;;22.50;71.80;;;;;;4175586;28;20569;-65
2022/09/09 03:29:00;;;;;;;0.73;0.73;;;22.50;71.80;;;;;;4175755;28;20114;-65
2022/09/09 03:31:42;;;;;;;0.20;0.20;;;22.50;71.80;;;;;;4175694;28;20482;-65
2022/09/09 03:34:24;;;;;;;0.00;0.00;;;22.50;71.80;;;;;;4159512;28;20059;-66
2022/09/09 03:37:05;;;;;;;0.00;0.00;;;22.60;71.80;;;;;;4159392;28;20048;-65
2022/09/09 03:39:47;;;;;;;0.00;0.00;;;22.50;72.70;;;;;;4159251;28;20060;-64
2022/09/09 03:42:30;;;;;;;0.00;0.00;;;22.50;71.80;;;;;;4150314;28;20055;-64
2022/09/09 03:45:13;;;;;;;0.00;0.00;;;22.50;71.80;;;;;;4175451;28;20511;-64
2022/09/09 03:47:56;;;;;;;0.00;0.00;;;22.50;71.80;;;;;;4163925;28;20059;-64
2022/09/09 03:50:38;;;;;;;0.00;0.00;;;22.50;71.80;;;;;;4158780;28;20068;-64
2022/09/09 03:53:21;;;;;;;0.10;0.10;;;22.50;71.80;;;;;;4173624;28;20071;-64
2022/09/09 03:56:06;;;;;;;0.00;0.00;;;22.50;71.80;;;;;;4163779;28;20055;-64
2022/09/09 03:58:47;;;;;;;0.00;0.00;;;22.50;71.90;;;;;;4186518;28;20187;-63
2022/09/09 04:01:28;;;;;;;0.00;0.00;;;22.50;71.80;;;;;;4175747;28;20119;-64
2022/09/09 04:04:11;;;;;;;0.20;0.20;;;22.50;71.90;;;;;;4161652;28;20531;-65
2022/09/09 04:06:52;;;;;;;0.00;0.00;;;22.50;71.90;;;;;;4161654;28;20067;-64
2022/09/09 04:09:34;;;;;;;0.08;0.08;;;22.50;71.90;;;;;;4176633;28;20047;-64
2022/09/09 04:12:17;;;;;;;0.00;0.00;;;22.40;71.80;;;;;;4148805;28;20381;-64
2022/09/09 04:14:59;;;;;;;0.00;0.00;;;22.50;71.90;;;;;;4159183;28;20541;-64
2022/09/09 04:17:39;;;;;;;0.00;0.00;;;22.50;71.90;;;;;;4181533;28;20103;-65
2022/09/09 04:20:21;;;;;;;0.00;0.00;;;22.50;72.80;;;;;;4159710;28;20519;-64
2022/09/09 04:23:03;;;;;;;0.17;0.17;;;22.40;71.90;;;;;;4158116;28;20180;-64
2022/09/09 04:25:46;;;;;;;0.15;0.15;;;22.40;71.90;;;;;;4158304;28;20142;-65
2022/09/09 04:28:30;;;;;;;0.00;0.00;;;22.40;71.90;;;;;;4158248;28;20072;-65
2022/09/09 04:31:17;;;;;;;0.00;0.00;;;22.40;71.90;;;;;;4165369;28;20056;-65
2022/09/09 04:34:02;;;;;;;0.00;0.00;;;22.40;71.90;;;;;;4163283;28;20134;-65
2022/09/09 04:36:43;;;;;;;1.40;1.30;;;22.40;71.90;;;;;;4166377;28;20126;-64
2022/09/09 04:39:24;;;;;;;0.00;0.00;;;22.40;72.00;;;;;;4173206;28;20048;-64
2022/09/09 04:42:06;;;;;;;0.00;0.00;;;22.40;72.00;;;;;;4158128;28;20103;-65
2022/09/09 04:44:48;;;;;;;0.00;0.00;;;22.40;72.00;;;;;;4174854;28;20403;-64
2022/09/09 04:47:30;;;;;;;0.00;0.00;;;22.40;72.00;;;;;;4174849;28;20051;-65
2022/09/09 04:50:12;;;;;;;;;;;22.40;72.00;;;;;;4175207;28;20174;-64
2022/09/09 04:52:52;;;;;;;0.00;0.00;;;22.40;71.90;;;;;;4175809;28;19936;-64
2022/09/09 04:55:34;;;;;;;8.18;2.35;;;22.40;72.00;;;;;;4159324;28;20807;-64
2022/09/09 04:58:15;;;;;;;0.20;0.15;;;22.40;72.10;;;;;;4158305;28;20114;-64
2022/09/09 05:01:04;;;;;;;0.00;0.00;;;22.40;73.00;;;;;;4159004;28;20180;-64
2022/09/09 05:03:46;;;;;;;0.38;0.38;;;22.40;72.20;;;;;;4159249;28;20049;-64
2022/09/09 05:06:31;;;;;;;0.00;0.00;;;22.40;72.20;;;;;;4175207;28;20072;-64
2022/09/09 05:09:18;;;;;;;0.00;0.00;;;22.40;72.20;;;;;;4173874;28;20072;-65
2022/09/09 05:12:00;;;;;;;0.40;0.40;;;22.40;72.40;;;;;;4173795;28;20126;-65
2022/09/09 05:14:45;;;;;;;0.10;0.10;;;22.30;72.30;;;;;;4174039;28;20052;-65
2022/09/09 05:17:27;;;;;;;0.00;0.00;;;22.30;72.40;;;;;;4173786;28;20060;-64
2022/09/09 05:20:09;;;;;;;0.00;0.00;;;22.40;72.40;;;;;;4173533;28;20044;-65
2022/09/09 05:22:55;;;;;;;0.30;0.30;;;22.30;72.40;;;;;;4174111;28;20058;-65
2022/09/09 05:25:38;;;;;;;0.10;0.10;;;22.30;72.50;;;;;;4173822;28;20126;-65
2022/09/09 05:28:19;;;;;;;0.10;0.10;;;22.30;72.40;;;;;;4175123;28;20422;-65
2022/09/09 05:31:03;;;;;;;0.30;0.30;;;22.40;72.40;;;;;;4160159;28;20060;-64
2022/09/09 05:33:49;;;;;;;0.00;0.00;;;22.30;72.40;;;;;;4172984;28;20079;-64
2022/09/09 05:36:30;;;;;;;0.00;0.00;;;22.30;72.50;;;;;;4173632;28;20047;-64
2022/09/09 05:39:11;;;;;;;0.00;0.00;;;22.30;72.60;;;;;;4168012;28;20503;-64
2022/09/09 05:41:52;;;;;;;;;;;22.30;72.80;;;;;;4172538;28;20147;-64
2022/09/09 05:44:33;;;;;;;0.07;0.07;;;22.30;72.80;;;;;;4158357;28;20248;-65
2022/09/09 05:47:15;;;;;;;0.00;0.00;;;22.40;72.80;;;;;;4151759;28;20276;-65
2022/09/09 05:49:57;;;;;;;0.00;0.00;;;22.40;72.80;;;;;;4171049;28;20092;-65
2022/09/09 05:52:38;;;;;;;0.22;0.22;;;22.40;72.80;;;;;;4159743;28;20178;-65
2022/09/09 05:55:20;;;;;;;0.20;0.20;;;22.30;72.70;;;;;;4169136;28;20055;-66
2022/09/09 05:58:01;;;;;;;0.00;0.00;;;22.30;72.60;;;;;;4165729;28;20039;-63
2022/09/09 06:00:43;;;;;;;0.52;0.52;;;22.30;72.50;;;;;;4144365;28;20064;-66
2022/09/09 06:03:25;;;;;;;0.40;0.40;;;22.30;72.50;;;;;;4156561;28;20515;-65
2022/09/09 06:06:09;;;;;;;0.43;0.43;;;22.30;72.60;;;;;;4156996;28;20244;-67
2022/09/09 06:08:52;;;;;;;0.05;0.05;;;22.30;72.70;;;;;;4156951;28;20180;-65
2022/09/09 06:11:35;;;;;;;0.00;0.00;;;22.30;72.70;;;;;;4157010;28;20180;-66
2022/09/09 06:14:17;;;;;;;1.45;0.30;;;22.30;72.70;;;;;;4156771;28;20110;-67
2022/09/09 06:17:01;;;;;;;0.00;0.00;;;22.30;72.70;;;;;;4147033;28;20052;-66
2022/09/09 06:19:43;;;;;;;0.00;0.00;;;22.30;72.70;;;;;;4158249;28;20150;-66
2022/09/09 06:22:26;;;;;;;0.00;0.00;;;22.30;72.80;;;;;;4156539;28;20053;-66
2022/09/09 06:25:09;;;;;;;0.00;0.00;;;22.30;72.80;;;;;;4167987;28;20332;-66
2022/09/09 06:27:51;;;;;;;0.00;0.00;;;22.30;72.80;;;;;;4156510;28;20123;-67
2022/09/09 06:30:32;;;;;;;0.00;0.00;;;22.30;72.70;;;;;;4167497;28;20108;-67
2022/09/09 06:33:13;;;;;;;0.05;0.05;;;22.30;72.80;;;;;;4163354;28;20483;-67
2022/09/09 06:35:56;;;;;;;0.00;0.00;;;22.20;72.70;;;;;;4155420;28;20199;-67
2022/09/09 06:38:39;;;;;;;1.35;0.63;;;22.30;72.70;;;;;;4167868;28;20743;-67
2022/09/09 06:41:22;;;;;;;0.00;0.00;;;22.20;72.70;;;;;;4145282;28;20561;-67
2022/09/09 06:44:03;;;;;;;0.00;0.00;;;22.20;72.70;;;;;;4157731;28;20052;-67
2022/09/09 06:46:52;;;;;;;0.00;0.00;;;22.20;72.70;;;;;;4160194;28;20365;-67
2022/09/09 06:49:33;;;;;;;0.43;0.43;;;22.20;72.70;;;;;;4160012;28;20076;-67
2022/09/09 06:52:18;;;;;;;0.00;0.00;;;22.20;72.60;;;;;;4159831;28;20195;-67
2022/09/09 06:55:02;;;;;;;0.00;0.00;;;22.20;72.60;;;;;;4160896;28;20052;-67
2022/09/09 06:57:44;;;;;;;0.03;0.03;;;22.20;72.70;;;;;;4159646;28;20108;-67
2022/09/09 07:00:30;;;;;;;0.00;0.00;;;22.20;73.10;;;;;;4159504;28;20048;-67
2022/09/09 07:03:11;;;;;;;0.00;0.00;;;22.30;73.30;;;;;;4158882;28;20119;-67
2022/09/09 07:05:56;;;;;;;0.05;0.05;;;22.30;73.10;;;;;;4161231;28;20315;-68
2022/09/09 07:08:40;;;;;;;0.05;0.05;;;22.30;73.00;;;;;;4156400;28;20064;-67
2022/09/09 07:11:23;;;;;;;;;;;22.30;72.90;;;;;;4176754;28;20056;-67
2022/09/09 07:14:04;;;;;;;2.10;1.33;;;22.30;72.80;;;;;;4177038;28;20398;-67
2022/09/09 07:16:46;;;;;;;1.27;1.27;;;22.30;72.80;;;;;;4175606;28;20089;-67
2022/09/09 07:19:29;;;;;;;0.00;0.00;;;22.30;72.80;;;;;;4175859;28;20064;-67
2022/09/09 07:22:10;;;;;;;0.55;0.55;;;22.30;72.80;;;;;;4175075;28;20067;-68
2022/09/09 07:24:52;;;;;;;0.00;0.00;;;22.30;72.80;;;;;;4163639;28;20052;-68
2022/09/09 07:27:34;;;;;;;0.00;0.00;;;22.30;72.80;;;;;;4175450;28;20055;-67
2022/09/09 07:30:16;;;;;;;0.00;0.00;;;22.30;72.90;;;;;;4156894;28;20443;-67
2022/09/09 07:33:03;;;;;;;2.30;1.27;;;22.30;73.00;;;;;;4158849;28;20057;-67
2022/09/09 07:35:45;;;;;;;0.00;0.00;;;22.30;72.90;;;;;;4160447;28;20056;-68
2022/09/09 07:38:26;;;;;;;0.00;0.00;;;22.30;72.90;;;;;;4160530;28;20113;-69
2022/09/09 07:41:11;;;;;;;0.00;0.00;;;22.30;73.00;;;;;;4186614;28;20059;-68
2022/09/09 07:43:54;;;;;;;0.00;0.00;;;22.30;73.20;;;;;;4175729;28;20060;-68
2022/09/09 07:46:39;;;;;;;0.73;0.68;;;22.30;75.00;;;;;;4175937;28;20056;-68
2022/09/09 07:49:22;;;;;;;0.52;0.52;;;22.40;77.00;;;;;;4175674;28;20066;-69
2022/09/09 07:52:10;;;;;;;3.63;1.30;;;22.40;76.70;;;;;;4174656;28;20048;-67
2022/09/09 07:54:55;;;;;;;0.15;0.15;;;22.40;76.20;;;;;;4175542;28;20151;-67
2022/09/09 07:57:37;;;;;;;0.57;0.57;;;22.40;75.20;;;;;;4171065;28;20052;-68
2022/09/09 08:00:21;;;;;;;0.45;0.17;;;22.40;74.60;;;;;;4174654;28;20510;-68
2022/09/09 08:03:06;;;;;;;0.35;0.35;;;22.40;74.40;;;;;;4175130;28;20051;-66
2022/09/09 08:05:48;;;;;;;1.42;0.70;;;22.40;74.30;;;;;;4175059;28;20064;-65
2022/09/09 08:08:29;;;;;;;0.00;0.00;;;22.40;74.40;;;;;;4176142;28;20040;-66
2022/09/09 08:11:11;;;;;;;;;;;22.40;74.20;;;;;;4175469;28;20438;-66
2022/09/09 08:13:52;;;;;;;0.00;0.00;;;22.40;74.00;;;;;;4175029;28;20891;-66
2022/09/09 08:16:41;;;;;;;0.05;0.05;;;22.40;73.80;;;;;;4174641;28;20067;-66
2022/09/09 08:19:22;;;;;;;0.00;0.00;;;22.40;73.70;;;;;;4174654;28;20052;-67
2022/09/09 08:22:04;;;;;;;0.00;0.00;;;22.40;73.80;;;;;;4175808;28;20052;-67
2022/09/09 08:24:48;;;;;;;2.83;1.25;;;22.40;73.70;;;;;;4175062;28;20067;-65
2022/09/09 08:27:29;;;;;;;0.00;0.00;;;22.40;73.60;;;;;;4159585;28;20044;-65
2022/09/09 08:30:12;;;;;;;0.00;0.00;;;22.40;73.60;;;;;;4174686;28;20056;-65
2022/09/09 08:32:55;;;;;;;0.00;0.00;;;22.40;73.60;;;;;;4166303;28;20040;-66
2022/09/09 08:35:36;;;;;;;0.00;0.00;;;22.50;74.40;;;;;;4173326;28;20177;-65
2022/09/09 08:38:18;;;;;;;0.00;0.00;;;22.50;73.30;;;;;;4172886;28;20222;-67
2022/09/09 08:41:14;;;;;;;0.47;0.47;;;22.50;73.10;;;;;;4172970;28;20506;-67
2022/09/09 08:44:04;;;;;;;0.00;0.00;;;22.50;73.90;;;;;;4156968;28;20052;-66
2022/09/09 08:46:56;;;;;;;0.00;0.00;;;22.40;72.90;;;;;;4159225;28;20064;-66
2022/09/09 08:49:56;;;;;;;0.10;0.10;;;22.50;72.60;;;;;;4157702;28;20634;-66
2022/09/09 08:52:41;;;;;;;0.00;0.00;;;22.50;72.60;;;;;;4146435;28;20056;-67
2022/09/09 08:55:29;;;;;;;0.10;0.10;;;22.50;72.60;;;;;;4173932;28;20067;-66
2022/09/09 08:58:15;;;;;;;0.10;0.10;;;22.50;72.50;;;;;;4189183;28;20479;-66
2022/09/09 09:01:10;;;;;;;0.00;0.00;;;22.40;72.40;;;;;;4189890;28;20059;-66
2022/09/09 09:04:06;;;;;;;0.00;0.00;;;22.50;72.50;;;;;;4149993;28;20183;-66
2022/09/09 09:06:55;;;;;;;0.00;0.00;;;22.50;72.50;;;;;;4161103;28;20655;-66
2022/09/09 09:09:45;;;;;;;0.00;0.00;;;22.50;72.60;;;;;;4160596;28;20088;-66
2022/09/09 09:12:29;;;;;;;0.20;0.20;;;22.50;72.60;;;;;;4154544;28;20059;-65
2022/09/09 09:15:17;;;;;;;1.45;0.98;;;22.50;72.80;;;;;;4189566;28;20712;-66
2022/09/09 09:17:59;;;;;;;0.00;0.00;;;22.50;72.60;;;;;;4189134;28;20099;-66
2022/09/09 09:20:52;;;;;;;0.00;0.00;;;22.50;72.60;;;;;;4176936;28;20075;-66
2022/09/09 09:23:41;;;;;;;0.00;0.00;;;22.50;72.60;;;;;;4189054;28;20182;-66
2022/09/09 09:26:27;;;;;;;0.17;0.17;;;22.50;72.60;;;;;;4188962;28;20059;-66
2022/09/09 09:29:12;;;;;;;0.00;0.00;;;22.50;72.60;;;;;;4164207;28;20056;-66
2022/09/09 09:31:57;;;;;;;0.00;0.00;;;22.50;72.60;;;;;;4171695;28;20056;-66
2022/09/09 09:34:39;;;;;;;0.00;0.00;;;22.50;72.70;;;;;;4152178;28;20053;-66
2022/09/09 09:37:23;;;;;;;;;;;22.50;72.80;;;;;;4141383;28;20169;-66
2022/09/09 09:40:13;;;;;;;0.00;0.00;;;22.50;72.90;;;;;;4158437;28;19960;-66
2022/09/09 09:42:56;;;;;;;0.00;0.00;;;22.50;73.70;;;;;;4160059;28;20129;-66
2022/09/09 09:45:44;;;;;;;0.00;0.00;;;22.50;73.50;;;;;;4164583;28;20051;-66
2022/09/09 09:48:35;;;;;;;0.30;0.30;;;22.50;73.20;;;;;;4172887;28;20047;-66
2022/09/09 09:51:25;;;;;;;0.00;0.00;;;22.50;73.10;;;;;;4162221;28;20052;-66
2022/09/09 09:54:14;;;;;;;0.00;0.00;;;22.50;73.10;;;;;;4173494;28;20056;-64
2022/09/09 09:57:11;;;;;;;0.00;0.00;;;22.50;73.10;;;;;;4156648;28;20423;-66
2022/09/09 10:00:05;;;;;;;0.00;0.00;;;22.60;73.40;;;;;;4157237;28;20068;-66
2022/09/09 10:02:56;;;;;;;0.20;0.20;;;22.60;73.10;;;;;;4151224;28;20044;-65
2022/09/09 10:05:46;;;;;;;0.00;0.00;;;22.60;73.00;;;;;;4164609;28;20066;-67
2022/09/09 10:08:30;;;;;;;0.00;0.00;;;22.60;73.00;;;;;;4151439;28;20053;-65
2022/09/09 10:11:26;;;;;;;3.53;0.90;;;22.60;73.00;;;;;;4142304;28;20045;-65
2022/09/09 10:14:19;;;;;;;0.00;0.00;;;22.60;73.00;;;;;;4161934;28;20051;-66
2022/09/09 10:17:17;;;;;;;0.00;0.00;;;22.60;72.80;;;;;;4174844;28;20064;-65
2022/09/09 10:20:19;;;;;;;0.30;0.30;;;22.60;72.70;;;;;;4157289;28;20072;-65
2022/09/09 10:23:11;;;;;;;0.00;0.00;;;22.60;72.70;;;;;;4174092;28;20055;-65
2022/09/09 10:26:09;;;;;;;18.73;0.98;;;22.60;72.50;;;;;;4174619;28;20540;-66
2022/09/09 10:29:27;;;;;;;0.00;0.00;;;22.60;72.50;;;;;;4173637;28;20052;-66
2022/09/09 10:32:27;;;;;;;0.00;0.00;;;22.60;72.40;;;;;;4159674;28;20068;-66
2022/09/09 10:35:19;;;;;;;0.70;0.52;;;22.60;72.40;;;;;;4171401;28;20052;-66
2022/09/09 10:38:14;;;;;;;0.10;0.10;;;22.60;72.20;;;;;;4172113;28;20211;-67
2022/09/09 10:41:15;;;;;;;0.13;0.13;;;22.60;72.00;;;;;;4171697;28;20051;-66
2022/09/09 10:44:35;;;;;;;0.00;0.00;;;22.60;72.10;;;;;;4167935;28;20142;-66
2022/09/09 10:48:00;;;;;;;0.00;0.00;;;22.70;71.70;;;;;;4154676;28;20055;-66
2022/09/09 10:50:50;;;;;;;0.80;0.80;;;22.70;71.40;;;;;;4154858;28;20476;-66
2022/09/09 10:53:59;;;;;;;0.00;0.00;;;22.60;71.20;;;;;;4167758;28;20435;-66
2022/09/09 10:56:42;;;;;;;0.00;0.00;;;22.70;71.20;;;;;;4161278;28;20546;-66
2022/09/09 10:59:28;;;;;;;0.47;0.47;;;22.70;71.10;;;;;;4155332;28;20223;-67
2022/09/09 11:02:19;;;;;;;0.00;0.00;;;22.70;70.90;;;;;;4155296;28;20049;-66
2022/09/09 11:05:04;;;;;;;0.10;0.10;;;22.80;70.90;;;;;;4154985;28;20055;-66
2022/09/09 11:07:52;;;;;;;0.00;0.00;;;22.80;70.90;;;;;;4155470;28;20637;-66
2022/09/09 11:10:40;;;;;;;0.00;0.00;;;22.80;70.80;;;;;;4154227;28;20240;-66
2022/09/09 11:13:27;;;;;;;0.75;0.75;;;22.80;70.50;;;;;;4155005;28;20056;-66
2022/09/09 11:16:20;;;;;;;0.00;0.00;;;22.90;70.40;;;;;;4153792;28;20107;-66
2022/09/09 11:19:05;;;;;;;0.00;0.00;;;22.90;70.00;;;;;;4168966;28;20060;-66
2022/09/09 11:21:49;;;;;;;0.10;0.10;;;22.90;70.60;;;;;;4146145;28;20056;-66
2022/09/09 11:24:38;;;;;;;0.00;0.00;;;22.90;69.30;;;;;;4154379;28;20052;-66
2022/09/09 11:27:24;;;;;;;0.43;0.43;;;22.90;69.00;;;;;;4171144;28;20051;-65
2022/09/09 11:30:21;;;;;;;0.00;0.00;;;22.90;68.70;;;;;;4164745;28;20060;-65
2022/09/09 11:33:54;;;;;;;12.80;1.35;;;23.00;68.60;;;;;;4167509;28;20396;-66
2022/09/09 11:37:06;;;;;;;0.00;0.00;;;23.00;68.50;;;;;;4159213;28;20090;-65
2022/09/09 11:40:10;;;;;;;0.00;0.00;;;23.00;68.50;;;;;;4159103;28;20069;-65
2022/09/09 11:43:04;;;;;;;0.25;0.25;;;23.00;68.60;;;;;;4157081;28;20660;-65
2022/09/09 11:45:53;;;;;;;0.00;0.00;;;23.10;68.70;;;;;;4174191;28;20175;-66
2022/09/09 11:48:38;;;;;;;;;;;23.10;68.80;;;;;;4158364;28;20068;-65
2022/09/09 11:51:28;;;;;;;0.10;0.10;;;23.10;68.80;;;;;;4154751;28;19931;-65
2022/09/09 11:54:33;;;;;;;0.28;0.28;;;23.10;68.70;;;;;;4149545;28;20048;-65
2022/09/09 11:57:26;;;;;;;0.00;0.00;;;23.10;68.60;;;;;;4150523;28;20080;-65
2022/09/09 12:00:09;;;;;;;0.00;0.00;;;23.10;68.40;;;;;;4184143;28;20214;-65
2022/09/09 12:02:52;;;;;;;0.00;0.00;;;23.10;68.30;;;;;;4171123;28;20044;-68
2022/09/09 12:05:39;;;;;;;;;;;23.20;68.20;;;;;;4157828;28;20230;-66
2022/09/09 12:08:28;;;;;;;0.00;0.00;;;23.20;68.20;;;;;;4157994;28;20038;-66
2022/09/09 12:11:10;;;;;;;0.00;0.00;;;23.20;68.20;;;;;;4161449;28;20071;-66
2022/09/09 12:13:55;;;;;;;0.00;0.00;;;23.10;68.00;;;;;;4173545;28;20399;-66
2022/09/09 12:16:38;;;;;;;0.00;0.00;;;23.10;68.00;;;;;;4158428;28;20076;-66
2022/09/09 12:19:22;;;;;;;0.95;0.90;;;23.10;68.00;;;;;;4173657;28;20059;-67
2022/09/09 12:22:11;;;;;;;0.00;0.00;;;23.10;68.00;;;;;;4156736;28;20384;-68
2022/09/09 12:25:01;;;;;;;1.13;0.45;;;23.10;68.00;;;;;;4157224;28;20511;-67
2022/09/09 12:27:50;;;;;;;20.20;1.90;;;23.10;68.00;;;;;;4157423;28;20109;-67
2022/09/09 12:30:34;;;;;;;0.00;0.00;;;23.10;68.20;;;;;;4151391;28;20147;-66
2022/09/09 12:33:19;;;;;;;0.00;0.00;;;23.10;68.40;;;;;;4156520;28;20147;-67
2022/09/09 12:36:00;;;;;;;0.00;0.00;;;23.00;68.50;;;;;;4160842;28;20083;-67
2022/09/09 12:38:42;;;;;;;0.00;0.00;;;23.10;68.80;;;;;;4157274;28;20452;-67
2022/09/09 12:41:25;;;;;;;0.00;0.00;;;23.10;69.10;;;;;;4158716;28;20127;-67
2022/09/09 12:44:10;;;;;;;0.00;0.00;;;23.10;69.40;;;;;;4156884;28;20052;-67
2022/09/09 12:46:53;;;;;;;0.47;0.38;;;23.10;69.50;;;;;;4156806;28;20187;-67
2022/09/09 12:49:38;;;;;;;0.00;0.00;;;23.20;69.50;;;;;;4156542;28;20056;-66
2022/09/09 12:52:26;;;;;;;0.00;0.00;;;23.20;69.50;;;;;;4172121;28;20047;-66
2022/09/09 12:55:08;;;;;;;0.00;0.00;;;23.20;69.50;;;;;;4171464;28;20052;-67
2022/09/09 12:57:51;;;;;;;0.00;0.00;;;23.20;69.50;;;;;;4156861;28;20083;-67
2022/09/09 13:00:35;;;;;;;0.00;0.00;;;23.20;70.40;;;;;;4156926;28;20056;-67
2022/09/09 13:03:19;;;;;;;0.00;0.00;;;23.20;69.50;;;;;;4166629;28;20114;-67
2022/09/09 13:06:14;;;;;;;0.00;0.00;;;23.30;69.70;;;;;;4171906;28;20048;-67
2022/09/09 13:08:56;;;;;;;0.00;0.00;;;23.30;69.80;;;;;;4156056;28;20128;-67
2022/09/09 13:11:41;;;;;;;0.00;0.00;;;23.30;69.70;;;;;;4151624;28;20067;-67
2022/09/09 13:14:29;;;;;;;0.00;0.00;;;23.30;69.80;;;;;;4169651;28;20047;-66
2022/09/09 13:17:21;;;;;;;0.00;0.00;;;23.40;69.80;;;;;;4157508;28;20191;-66
2022/09/09 13:20:02;;;;;;;0.00;0.00;;;23.40;69.80;;;;;;4156222;28;20519;-66
2022/09/09 13:22:44;;;;;;;0.00;0.00;;;23.50;70.00;;;;;;4164499;28;20111;-66
2022/09/09 13:25:27;;;;;;;0.00;0.00;;;23.50;70.10;;;;;;4154953;28;20211;-66
2022/09/09 13:28:22;;;;;;;0.00;0.00;;;23.50;70.10;;;;;;4176555;28;20055;-66
2022/09/09 13:31:06;;;;;;;0.00;0.00;;;23.50;70.00;;;;;;4172628;28;20080;-67
2022/09/09 13:33:49;;;;;;;0.00;0.00;;;23.60;70.10;;;;;;4172203;28;20091;-66
2022/09/09 13:36:32;;;;;;;0.00;0.00;;;23.60;70.00;;;;;;4173145;28;20068;-66
2022/09/09 13:39:18;;;;;;;0.00;0.00;;;23.60;69.90;;;;;;4171342;28;20056;-66
2022/09/09 13:41:59;;;;;;;0.03;0.03;;;23.60;70.00;;;;;;4160955;28;20043;-67
2022/09/09 13:44:42;;;;;;;0.47;0.47;;;23.60;69.80;;;;;;4171884;28;20056;-65
2022/09/09 13:47:28;;;;;;;0.00;0.00;;;23.70;69.70;;;;;;4170716;28;20624;-65
2022/09/09 13:50:29;;;;;;;0.00;0.00;;;23.60;69.50;;;;;;4155996;28;20142;-66
2022/09/09 13:53:11;;;;;;;0.00;0.00;;;23.60;69.30;;;;;;4156045;28;20064;-66
2022/09/09 13:55:52;;;;;;;0.00;0.00;;;23.70;69.20;;;;;;4155254;28;20064;-68
2022/09/09 13:58:33;;;;;;;;;;;23.60;69.00;;;;;;4171266;28;20059;-65
2022/09/09 14:01:14;;;;;;;0.00;0.00;;;23.60;69.00;;;;;;4168529;28;20279;-66
2022/09/09 14:03:55;;;;;;;0.00;0.00;;;23.60;68.80;;;;;;4155600;28;20067;-66
2022/09/09 14:06:39;;;;;;;0.00;0.00;;;23.60;68.90;;;;;;4158738;28;20183;-66
2022/09/09 14:09:20;;;;;;;0.00;0.00;;;23.60;68.80;;;;;;4154193;28;20056;-66
2022/09/09 14:12:02;;;;;;;0.00;0.00;;;23.60;69.00;;;;;;4156138;28;20061;-66
2022/09/09 14:14:43;;;;;;;0.00;0.00;;;23.60;69.00;;;;;;4170805;28;20052;-66
2022/09/09 14:17:24;;;;;;;0.00;0.00;;;23.60;69.10;;;;;;4171069;28;20128;-66
2022/09/09 14:20:08;;;;;;;0.00;0.00;;;23.50;69.20;;;;;;4157080;28;20472;-66
2022/09/09 14:22:51;;;;;;;0.10;0.10;;;23.50;69.20;;;;;;4157655;28;20064;-65
2022/09/09 14:25:33;;;;;;;0.00;0.00;;;23.50;69.30;;;;;;4158103;28;20452;-65
2022/09/09 14:28:14;;;;;;;0.00;0.00;;;23.50;69.30;;;;;;4156049;28;20056;-66